createdAt,value
2018-10-19T00:00:19.568Z,15.64
2018-10-19T00:02:47.970Z,15.70
2018-10-19T00:05:16.426Z,16.19
2018-10-19T00:07:44.951Z,16.46
2018-10-19T00:10:13.303Z,16.19
2018-10-19T00:12:41.699Z,16.28
2018-10-19T00:15:10.117Z,16.07
2018-10-19T00:17:38.491Z,16.31
2018-10-19T00:20:07.525Z,15.94
2018-10-19T00:22:35.939Z,15.83
2018-10-19T00:25:04.438Z,16.20
2018-10-19T00:27:32.833Z,16.16
2018-10-19T00:30:01.233Z,15.89
2018-10-19T00:32:29.640Z,15.85
2018-10-19T00:34:58.031Z,15.72
2018-10-19T00:37:26.457Z,15.95
2018-10-19T00:39:55.023Z,15.32
2018-10-19T00:42:23.476Z,15.96
2018-10-19T00:44:51.888Z,15.75
2018-10-19T00:47:20.367Z,16.41
2018-10-19T00:49:48.766Z,15.91
2018-10-19T00:52:17.163Z,15.45
2018-10-19T00:54:45.563Z,16.18
2018-10-19T00:57:13.971Z,15.62
2018-10-19T00:59:42.335Z,16.19
2018-10-19T01:02:10.704Z,15.78
2018-10-19T01:04:39.093Z,15.96
2018-10-19T01:07:07.495Z,16.43
2018-10-19T01:09:35.879Z,16.28
2018-10-19T01:12:04.287Z,15.46
2018-10-19T01:14:32.619Z,15.80
2018-10-19T01:17:00.993Z,15.97
2018-10-19T01:19:29.267Z,16.03
2018-10-19T01:21:57.587Z,16.17
2018-10-19T01:24:25.884Z,16.10
2018-10-19T01:26:54.223Z,16.06
2018-10-19T01:29:22.603Z,15.94
2018-10-19T01:31:50.883Z,15.84
2018-10-19T01:34:19.194Z,16.06
2018-10-19T01:39:31.815Z,15.80
2018-10-19T01:42:00.340Z,16.07
2018-10-19T01:44:28.753Z,15.66
2018-10-19T01:46:57.137Z,15.75
2018-10-19T01:49:25.543Z,15.79
2018-10-19T01:51:54.349Z,15.35
2018-10-19T01:54:22.752Z,15.44
2018-10-19T01:56:51.158Z,15.30
2018-10-19T01:59:19.595Z,15.33
2018-10-19T02:01:48.032Z,15.52
2018-10-19T02:04:16.415Z,15.80
2018-10-19T02:06:44.804Z,16.05
2018-10-19T02:09:13.417Z,16.07
2018-10-19T02:11:41.723Z,16.11
2018-10-19T02:14:10.153Z,14.97
2018-10-19T02:16:38.515Z,14.45
2018-10-19T02:19:07.060Z,14.66
2018-10-19T02:21:35.424Z,15.77
2018-10-19T02:24:03.812Z,15.97
2018-10-19T02:26:32.234Z,15.98
2018-10-19T02:29:00.759Z,16.06
2018-10-19T02:31:29.123Z,15.96
2018-10-19T02:33:57.500Z,15.87
2018-10-19T02:36:25.859Z,15.84
2018-10-19T02:38:54.301Z,16.01
2018-10-19T02:41:22.669Z,16.05
2018-10-19T02:43:51.099Z,16.15
2018-10-19T02:46:19.528Z,15.56
2018-10-19T02:48:47.968Z,15.67
2018-10-19T02:51:16.496Z,16.11
2018-10-19T02:53:44.991Z,15.82
2018-10-19T02:56:13.413Z,15.74
2018-10-19T02:58:41.823Z,15.87
2018-10-19T03:01:10.448Z,15.84
2018-10-19T03:03:38.852Z,15.93
2018-10-19T03:06:07.255Z,15.81
2018-10-19T03:08:35.676Z,15.46
2018-10-19T03:11:04.103Z,16.10
2018-10-19T03:13:33.443Z,15.55
2018-10-19T03:16:01.788Z,15.61
2018-10-19T03:18:30.235Z,15.53
2018-10-19T03:20:58.581Z,15.50
2018-10-19T03:23:26.976Z,15.20
2018-10-19T03:25:55.319Z,15.28
2018-10-19T03:28:23.712Z,15.45
2018-10-19T03:30:52.226Z,15.95
2018-10-19T03:33:20.552Z,15.51
2018-10-19T03:35:49.036Z,15.47
2018-10-19T03:38:17.691Z,15.76
2018-10-19T03:40:46.372Z,15.44
2018-10-19T03:43:14.987Z,15.64
2018-10-19T03:45:43.673Z,15.50
2018-10-19T03:48:12.253Z,15.48
2018-10-19T03:50:40.817Z,15.30
2018-10-19T03:53:09.405Z,15.55
2018-10-19T03:55:38.043Z,15.50
2018-10-19T03:58:07.897Z,15.47
2018-10-19T04:00:36.494Z,15.25
2018-10-19T04:03:05.252Z,14.73
2018-10-19T04:05:33.947Z,14.74
2018-10-19T04:08:02.718Z,15.40
2018-10-19T04:10:31.221Z,15.09
2018-10-19T04:12:59.873Z,15.44
2018-10-19T04:15:28.580Z,15.35
2018-10-19T04:17:57.249Z,15.25
2018-10-19T04:20:26.189Z,15.44
2018-10-19T04:23:00.181Z,15.76
2018-10-19T04:25:28.724Z,15.53
2018-10-19T04:27:57.362Z,15.11
2018-10-19T04:30:26.047Z,15.70
2018-10-19T04:32:54.673Z,15.68
2018-10-19T04:35:23.258Z,15.38
2018-10-19T04:37:51.945Z,15.42
2018-10-19T04:40:22.740Z,15.63
2018-10-19T04:42:51.469Z,15.47
2018-10-19T04:45:21.167Z,15.83
2018-10-19T04:47:49.908Z,15.65
2018-10-19T04:50:18.542Z,15.25
2018-10-19T04:52:52.727Z,15.61
2018-10-19T04:55:22.950Z,15.01
2018-10-19T04:57:52.395Z,15.31
2018-10-19T05:00:26.565Z,15.43
2018-10-19T05:02:55.362Z,15.26
2018-10-19T05:05:30.346Z,15.47
2018-10-19T05:07:59.752Z,15.50
2018-10-19T05:10:28.476Z,15.34
2018-10-19T05:12:57.092Z,14.96
2018-10-19T05:15:26.667Z,15.09
2018-10-19T05:17:54.985Z,14.88
2018-10-19T05:20:23.310Z,15.51
2018-10-19T05:22:51.606Z,15.32
2018-10-19T05:25:19.916Z,14.85
2018-10-19T05:27:48.215Z,14.51
2018-10-19T05:30:18.525Z,14.92
2018-10-19T05:32:46.931Z,14.78
2018-10-19T05:35:15.220Z,15.14
2018-10-19T05:37:43.609Z,15.06
2018-10-19T05:40:12.028Z,15.57
2018-10-19T05:42:40.723Z,15.15
2018-10-19T05:45:10.226Z,15.29
2018-10-19T05:47:38.517Z,14.78
2018-10-19T05:50:07.766Z,15.22
2018-10-19T05:52:36.582Z,15.14
2018-10-19T05:55:04.847Z,15.19
2018-10-19T05:57:33.191Z,15.27
2018-10-19T06:00:01.607Z,15.18
2018-10-19T06:02:30.297Z,15.03
2018-10-19T06:04:58.560Z,14.95
2018-10-19T06:07:26.999Z,14.61
2018-10-19T06:09:55.375Z,14.85
2018-10-19T06:12:24.775Z,15.19
2018-10-19T06:14:53.215Z,15.23
2018-10-19T06:17:21.763Z,14.99
2018-10-19T06:19:50.098Z,14.87
2018-10-19T06:22:19.548Z,15.13
2018-10-19T06:24:47.878Z,15.07
2018-10-19T06:27:16.494Z,14.88
2018-10-19T06:29:44.877Z,15.18
2018-10-19T06:32:13.779Z,14.83
2018-10-19T06:34:42.123Z,15.00
2018-10-19T06:37:10.675Z,15.26
2018-10-19T06:39:39.288Z,15.43
2018-10-19T06:42:07.919Z,15.56
2018-10-19T06:44:36.261Z,15.35
2018-10-19T06:47:05.500Z,15.19
2018-10-19T06:49:34.095Z,15.34
2018-10-19T06:52:03.731Z,15.22
2018-10-19T06:54:32.559Z,15.15
2018-10-19T06:57:01.111Z,15.22
2018-10-19T06:59:30.191Z,15.36
2018-10-19T07:01:58.608Z,15.29
2018-10-19T07:04:27.150Z,15.20
2018-10-19T07:06:55.655Z,15.47
2018-10-19T07:09:24.551Z,15.07
2018-10-19T07:11:52.939Z,15.30
2018-10-19T07:14:21.603Z,14.95
2018-10-19T07:16:50.107Z,15.00
2018-10-19T07:19:18.545Z,15.19
2018-10-19T07:21:47.383Z,15.28
2018-10-19T07:24:15.907Z,15.39
2018-10-19T07:26:44.331Z,15.45
2018-10-19T07:29:12.979Z,15.86
2018-10-19T07:31:47.779Z,15.91
2018-10-19T07:34:16.357Z,15.39
2018-10-19T07:36:44.769Z,15.63
2018-10-19T07:39:13.076Z,15.77
2018-10-19T07:41:41.512Z,15.77
2018-10-19T07:44:09.908Z,15.66
2018-10-19T07:46:38.245Z,16.04
2018-10-19T07:49:06.731Z,15.92
2018-10-19T07:51:35.223Z,15.31
2018-10-19T07:54:03.829Z,15.79
2018-10-19T07:56:32.165Z,16.27
2018-10-19T07:59:00.737Z,15.76
2018-10-19T08:01:29.343Z,15.87
2018-10-19T08:03:57.787Z,16.03
2018-10-19T08:06:26.859Z,15.72
2018-10-19T08:08:55.405Z,15.74
2018-10-19T08:11:23.799Z,15.77
2018-10-19T08:13:52.237Z,15.45
2018-10-19T08:16:20.862Z,15.98
2018-10-19T08:18:49.244Z,15.73
2018-10-19T08:21:17.876Z,15.02
2018-10-19T08:23:46.365Z,15.58
2018-10-19T08:26:15.342Z,16.07
2018-10-19T08:28:43.623Z,15.56
2018-10-19T08:31:12.177Z,15.87
2018-10-19T08:33:40.623Z,15.96
2018-10-19T08:36:09.266Z,16.09
2018-10-19T08:38:37.572Z,15.90
2018-10-19T08:41:06.325Z,15.79
2018-10-19T08:43:34.654Z,16.40
2018-10-19T08:46:08.441Z,16.45
2018-10-19T08:48:37.690Z,16.47
2018-10-19T08:51:06.048Z,16.06
2018-10-19T08:53:34.508Z,16.42
2018-10-19T08:56:03.049Z,16.39
2018-10-19T08:58:31.432Z,16.65
2018-10-19T09:01:00.005Z,16.82
2018-10-19T09:03:28.338Z,16.30
2018-10-19T09:05:56.798Z,16.69
2018-10-19T09:08:25.250Z,16.65
2018-10-19T09:10:54.481Z,16.50
2018-10-19T09:13:23.217Z,16.67
2018-10-19T09:15:51.731Z,16.56
2018-10-19T09:18:21.194Z,16.01
2018-10-19T09:20:50.098Z,16.85
2018-10-19T09:23:18.641Z,16.63
2018-10-19T09:25:47.139Z,16.57
2018-10-19T09:28:15.520Z,16.32
2018-10-19T09:30:43.994Z,16.62
2018-10-19T09:33:12.578Z,16.36
2018-10-19T09:35:41.220Z,16.29
2018-10-19T09:38:09.651Z,16.76
2018-10-19T09:40:38.238Z,17.15
2018-10-19T09:43:07.187Z,16.11
2018-10-19T09:45:35.772Z,17.13
2018-10-19T09:48:04.646Z,17.26
2018-10-19T09:50:33.439Z,17.49
2018-10-19T09:53:01.882Z,17.50
2018-10-19T09:55:30.348Z,16.86
2018-10-19T09:57:59.108Z,16.42
2018-10-19T10:00:33.174Z,17.13
2018-10-19T10:03:01.852Z,16.75
2018-10-19T10:05:30.251Z,17.22
2018-10-19T10:07:58.865Z,17.28
2018-10-19T10:10:27.446Z,17.31
2018-10-19T10:12:55.983Z,17.26
2018-10-19T10:15:24.442Z,16.89
2018-10-19T10:17:53.117Z,17.18
2018-10-19T10:20:21.580Z,17.32
2018-10-19T10:22:50.414Z,17.22
2018-10-19T10:25:18.859Z,17.25
2018-10-19T10:27:47.535Z,17.30
2018-10-19T10:30:16.131Z,17.07
2018-10-19T10:32:44.767Z,17.33
2018-10-19T10:35:13.307Z,17.15
2018-10-19T10:37:41.761Z,17.54
2018-10-19T10:40:11.316Z,17.81
2018-10-19T10:42:40.051Z,17.56
2018-10-19T10:45:08.821Z,17.46
2018-10-19T10:47:38.236Z,17.46
2018-10-19T10:50:06.931Z,18.66
2018-10-19T10:52:35.704Z,18.36
2018-10-19T10:55:06.095Z,18.50
2018-10-19T10:57:34.520Z,17.69
2018-10-19T11:00:03.104Z,17.76
2018-10-19T11:02:32.264Z,18.12
2018-10-19T11:05:01.011Z,18.78
2018-10-19T11:07:30.799Z,19.45
2018-10-19T11:10:00.230Z,19.65
2018-10-19T11:12:29.211Z,18.98
2018-10-19T11:14:58.317Z,19.20
2018-10-19T11:17:26.794Z,18.99
2018-10-19T11:19:55.602Z,18.72
2018-10-19T11:22:24.484Z,19.09
2018-10-19T11:27:33.543Z,18.60
2018-10-19T11:30:02.108Z,18.99
2018-10-19T11:32:30.668Z,20.04
2018-10-19T11:34:59.161Z,21.16
2018-10-19T11:37:27.609Z,21.58
2018-10-19T11:40:07.556Z,20.41
2018-10-19T11:42:35.892Z,19.25
2018-10-19T11:45:04.568Z,21.17
2018-10-19T11:47:32.994Z,22.29
2018-10-19T11:50:01.367Z,23.36
2018-10-19T11:52:29.736Z,22.75
2018-10-19T11:54:58.256Z,22.27
2018-10-19T11:57:26.662Z,22.95
2018-10-19T11:59:56.120Z,24.24
2018-10-19T12:02:24.629Z,23.76
2018-10-19T12:04:53.063Z,21.65
2018-10-19T12:07:21.551Z,21.36
2018-10-19T12:09:49.979Z,19.91
2018-10-19T12:12:18.459Z,19.09
2018-10-19T12:14:46.852Z,18.65
2018-10-19T12:17:15.433Z,19.26
2018-10-19T12:19:44.000Z,20.03
2018-10-19T12:22:12.402Z,21.05
2018-10-19T12:24:40.858Z,20.11
2018-10-19T12:27:09.436Z,21.12
2018-10-19T12:29:38.567Z,21.87
2018-10-19T12:32:07.284Z,21.64
2018-10-19T12:34:35.787Z,21.47
2018-10-19T12:37:04.346Z,21.71
2018-10-19T12:39:32.792Z,20.19
2018-10-19T12:42:01.343Z,20.90
2018-10-19T12:44:29.850Z,20.25
2018-10-19T12:47:10.532Z,20.44
2018-10-19T12:49:39.117Z,19.85
2018-10-19T12:52:07.687Z,20.23
2018-10-19T12:54:36.294Z,19.27
2018-10-19T12:57:06.529Z,19.31
2018-10-19T12:59:35.093Z,19.38
2018-10-19T13:02:03.875Z,19.57
2018-10-19T13:04:32.348Z,18.95
2018-10-19T13:07:00.769Z,19.79
2018-10-19T13:09:29.226Z,20.04
2018-10-19T13:11:57.534Z,19.59
2018-10-19T13:14:25.967Z,19.96
2018-10-19T13:16:54.303Z,19.78
2018-10-19T13:19:22.714Z,19.60
2018-10-19T13:21:51.107Z,19.24
2018-10-19T13:24:19.538Z,19.34
2018-10-19T13:26:47.964Z,19.18
2018-10-19T13:29:16.542Z,19.44
2018-10-19T13:31:44.988Z,19.67
2018-10-19T13:34:13.464Z,19.30
2018-10-19T13:36:42.967Z,19.29
2018-10-19T13:39:12.882Z,19.40
2018-10-19T13:41:41.538Z,19.42
2018-10-19T13:44:10.183Z,19.44
2018-10-19T13:46:38.599Z,19.72
2018-10-19T13:49:07.064Z,19.38
2018-10-19T13:51:35.668Z,19.71
2018-10-19T13:54:04.496Z,19.75
2018-10-19T13:56:33.243Z,19.86
2018-10-19T13:59:01.665Z,19.65
2018-10-19T14:01:30.167Z,18.92
2018-10-19T14:03:58.607Z,19.32
2018-10-19T14:06:27.310Z,19.64
2018-10-19T14:08:55.769Z,19.24
2018-10-19T14:11:24.248Z,19.21
2018-10-19T14:13:52.615Z,19.63
2018-10-19T14:16:21.107Z,19.78
2018-10-19T14:18:49.583Z,19.90
2018-10-19T14:21:17.944Z,19.95
2018-10-19T14:23:46.419Z,19.62
2018-10-19T14:26:14.840Z,19.68
2018-10-19T14:28:43.220Z,19.45
2018-10-19T14:31:11.626Z,19.65
2018-10-19T14:33:40.076Z,19.76
2018-10-19T14:36:08.645Z,19.34
2018-10-19T14:38:37.259Z,19.57
2018-10-19T14:41:05.700Z,19.09
2018-10-19T14:43:34.035Z,19.16
2018-10-19T14:46:02.430Z,19.08
2018-10-19T14:48:30.815Z,19.52
2018-10-19T14:50:59.188Z,19.34
2018-10-19T14:53:27.568Z,18.37
2018-10-19T14:55:55.911Z,18.55
2018-10-19T14:58:24.260Z,18.77
2018-10-19T15:00:52.684Z,19.45
2018-10-19T15:03:21.046Z,18.94
2018-10-19T15:05:49.425Z,18.15
2018-10-19T15:08:17.900Z,18.57
2018-10-19T15:10:46.592Z,18.75
2018-10-19T15:13:14.571Z,18.88
2018-10-19T15:15:42.959Z,18.44
2018-10-19T15:18:11.430Z,18.79
2018-10-19T15:20:39.713Z,18.77
2018-10-19T15:23:07.984Z,18.61
2018-10-19T15:25:36.290Z,18.63
2018-10-19T15:28:04.629Z,18.32
2018-10-19T15:30:32.921Z,18.55
2018-10-19T15:33:01.255Z,18.68
2018-10-19T15:35:29.512Z,18.36
2018-10-19T15:37:57.787Z,18.44
2018-10-19T15:40:37.875Z,18.34
2018-10-19T15:43:06.250Z,18.61
2018-10-19T15:45:34.644Z,18.58
2018-10-19T15:48:03.010Z,17.87
2018-10-19T15:50:31.424Z,18.23
2018-10-19T15:52:59.743Z,18.17
2018-10-19T15:55:28.019Z,18.27
2018-10-19T15:57:56.420Z,18.03
2018-10-19T16:00:25.045Z,18.49
2018-10-19T16:02:53.397Z,18.44
2018-10-19T16:05:21.873Z,18.26
2018-10-19T16:07:50.204Z,18.29
2018-10-19T16:10:18.627Z,18.07
2018-10-19T16:12:46.992Z,18.23
2018-10-19T16:15:15.423Z,18.04
2018-10-19T16:17:43.692Z,18.13
2018-10-19T16:20:12.024Z,18.12
2018-10-19T16:22:40.396Z,18.38
2018-10-19T16:25:08.923Z,18.33
2018-10-19T16:27:38.346Z,18.27
2018-10-19T16:30:10.549Z,18.49
2018-10-19T16:32:39.298Z,18.12
2018-10-19T16:35:08.200Z,18.32
2018-10-19T16:37:37.276Z,18.02
2018-10-19T16:40:05.732Z,18.21
2018-10-19T16:42:34.092Z,18.12
2018-10-19T16:45:02.480Z,17.98
2018-10-19T16:47:30.994Z,17.90
2018-10-19T16:49:59.332Z,17.73
2018-10-19T16:52:27.728Z,17.90
2018-10-19T16:54:55.961Z,18.19
2018-10-19T16:57:24.223Z,17.97
2018-10-19T16:59:52.646Z,17.71
2018-10-19T17:02:20.912Z,17.87
2018-10-19T17:04:49.467Z,18.02
2018-10-19T17:07:17.850Z,17.76
2018-10-19T17:09:46.319Z,17.38
2018-10-19T17:12:14.694Z,17.74
2018-10-19T17:14:42.883Z,17.31
2018-10-19T17:17:11.219Z,17.54
2018-10-19T17:19:39.508Z,17.70
2018-10-19T17:22:07.831Z,17.61
2018-10-19T17:24:36.130Z,17.51
2018-10-19T17:27:04.467Z,17.79
2018-10-19T17:29:32.684Z,17.54
2018-10-19T17:32:00.940Z,17.58
2018-10-19T17:34:29.210Z,17.64
2018-10-19T17:36:57.524Z,17.79
2018-10-19T17:39:25.763Z,17.69
2018-10-19T17:41:54.038Z,17.40
2018-10-19T17:44:22.319Z,17.19
2018-10-19T17:46:50.587Z,16.77
2018-10-19T17:49:18.865Z,17.41
2018-10-19T17:51:47.176Z,17.03
2018-10-19T17:54:15.803Z,17.42
2018-10-19T17:56:43.944Z,17.28
2018-10-19T17:59:12.270Z,17.20
2018-10-19T18:01:40.547Z,16.98
2018-10-19T18:04:08.915Z,17.22
2018-10-19T18:06:37.287Z,17.12
2018-10-19T18:09:08.711Z,17.21
2018-10-19T18:11:37.029Z,17.45
2018-10-19T18:14:05.615Z,17.14
2018-10-19T18:16:33.951Z,17.27
2018-10-19T18:19:02.283Z,17.17
2018-10-19T18:21:30.695Z,16.64
2018-10-19T18:23:58.967Z,16.63
2018-10-19T18:26:27.257Z,16.51
2018-10-19T18:28:55.568Z,16.56
2018-10-19T18:31:23.811Z,16.80
2018-10-19T18:33:52.097Z,16.61
2018-10-19T18:36:20.396Z,16.08
2018-10-19T18:38:48.685Z,16.48
2018-10-19T18:41:16.986Z,16.52
2018-10-19T18:43:45.285Z,16.57
2018-10-19T18:46:13.567Z,16.40
2018-10-19T18:48:41.835Z,16.32
2018-10-19T18:51:10.167Z,16.16
2018-10-19T18:53:38.451Z,16.66
2018-10-19T18:56:06.778Z,16.76
2018-10-19T18:58:35.037Z,16.59
2018-10-19T19:01:03.383Z,16.54
2018-10-19T19:03:31.698Z,16.53
2018-10-19T19:06:00.114Z,16.26
2018-10-19T19:08:28.470Z,16.38
2018-10-19T19:10:56.855Z,16.39
2018-10-19T19:13:30.127Z,16.36
2018-10-19T19:15:59.234Z,16.14
2018-10-19T19:18:27.576Z,16.26
2018-10-19T19:20:57.147Z,16.29
2018-10-19T19:23:25.499Z,16.57
2018-10-19T19:25:59.200Z,16.77
2018-10-19T19:28:27.589Z,16.22
2018-10-19T19:30:55.982Z,15.83
2018-10-19T19:33:29.543Z,16.16
2018-10-19T19:35:57.995Z,16.13
2018-10-19T19:38:26.375Z,16.05
2018-10-19T19:41:00.153Z,15.85
2018-10-19T19:43:28.655Z,16.06
2018-10-19T19:45:57.107Z,15.82
2018-10-19T19:50:35.709Z,15.51
2018-10-19T19:53:04.098Z,15.51
2018-10-19T19:55:32.395Z,15.56
2018-10-19T19:58:00.828Z,15.55
2018-10-19T20:00:29.178Z,15.57
2018-10-19T20:02:57.749Z,15.37
2018-10-19T20:05:26.116Z,15.48
2018-10-19T20:07:54.526Z,15.19
2018-10-19T20:10:22.894Z,15.60
2018-10-19T20:12:51.287Z,15.86
2018-10-19T20:15:19.714Z,15.76
2018-10-19T20:17:48.074Z,15.65
2018-10-19T20:20:16.590Z,15.50
2018-10-19T20:22:44.892Z,15.61
2018-10-19T20:25:13.523Z,15.48
2018-10-19T20:27:41.967Z,15.77
2018-10-19T20:30:11.959Z,15.59
2018-10-19T20:32:40.571Z,15.74
2018-10-19T20:35:09.430Z,15.39
2018-10-19T20:37:37.920Z,15.43
2018-10-19T20:40:06.376Z,15.50
2018-10-19T20:42:35.034Z,15.51
2018-10-19T20:45:03.789Z,15.20
2018-10-19T20:47:32.279Z,15.71
2018-10-19T20:50:00.881Z,15.38
2018-10-19T20:52:29.319Z,15.47
2018-10-19T20:54:57.891Z,15.46
2018-10-19T20:57:26.335Z,15.56
2018-10-19T20:59:54.825Z,15.77
2018-10-19T21:02:23.281Z,16.08
2018-10-19T21:04:51.699Z,15.88
2018-10-19T21:07:20.205Z,15.45
2018-10-19T21:09:48.623Z,15.20
2018-10-19T21:12:17.041Z,15.88
2018-10-19T21:14:45.487Z,15.75
2018-10-19T21:17:14.024Z,15.92
2018-10-19T21:19:42.383Z,15.78
2018-10-19T21:22:10.759Z,15.42
2018-10-19T21:24:39.219Z,15.41
2018-10-19T21:27:07.655Z,15.21
2018-10-19T21:29:36.148Z,15.31
2018-10-19T21:32:04.907Z,15.25
2018-10-19T21:34:33.214Z,14.97
2018-10-19T21:37:01.831Z,15.07
2018-10-19T21:39:30.239Z,15.21
2018-10-19T21:41:58.626Z,15.04
2018-10-19T21:44:27.010Z,14.95
2018-10-19T21:46:55.461Z,14.90
2018-10-19T21:49:23.851Z,14.74
2018-10-19T21:51:52.567Z,14.83
2018-10-19T21:54:21.034Z,14.69
2018-10-19T21:56:49.515Z,14.52
2018-10-19T21:59:18.025Z,14.34
2018-10-19T22:01:46.454Z,14.72
2018-10-19T22:04:14.931Z,14.21
2018-10-19T22:06:43.398Z,14.68
2018-10-19T22:09:13.000Z,14.56
2018-10-19T22:11:41.878Z,14.35
2018-10-19T22:14:10.857Z,14.33
2018-10-19T22:16:40.095Z,14.39
2018-10-19T22:19:09.379Z,13.98
2018-10-19T22:21:37.774Z,13.99
2018-10-19T22:24:06.940Z,14.06
2018-10-19T22:26:35.323Z,14.30
2018-10-19T22:29:03.781Z,14.20
2018-10-19T22:31:32.108Z,14.45
2018-10-19T22:34:00.667Z,14.16
2018-10-19T22:36:29.027Z,13.99
2018-10-19T22:38:57.465Z,14.16
2018-10-19T22:41:25.868Z,13.69
2018-10-19T22:43:54.248Z,14.04
2018-10-19T22:46:22.600Z,13.79
2018-10-19T22:48:51.086Z,14.00
2018-10-19T22:51:19.527Z,14.17
2018-10-19T22:53:47.921Z,13.74
2018-10-19T22:56:16.485Z,13.51
2018-10-19T22:58:44.815Z,13.44
2018-10-19T23:01:13.335Z,13.49
2018-10-19T23:03:41.687Z,13.54
2018-10-19T23:06:10.144Z,13.45
2018-10-19T23:08:38.543Z,13.34
2018-10-19T23:11:06.966Z,12.78
2018-10-19T23:13:35.276Z,12.98
2018-10-19T23:16:03.687Z,13.10
2018-10-19T23:18:32.101Z,12.89
2018-10-19T23:21:00.599Z,12.66
2018-10-19T23:23:28.959Z,12.45
2018-10-19T23:25:57.357Z,11.90
2018-10-19T23:28:25.703Z,11.75
2018-10-19T23:30:54.089Z,11.88
2018-10-19T23:33:22.407Z,12.23
2018-10-19T23:35:50.775Z,12.34
2018-10-19T23:38:19.128Z,12.71
2018-10-19T23:40:47.500Z,12.40
2018-10-19T23:43:15.943Z,12.84
2018-10-19T23:45:44.467Z,12.77
2018-10-19T23:48:12.940Z,13.15
2018-10-19T23:50:41.357Z,12.96
2018-10-19T23:53:09.885Z,13.18
2018-10-19T23:55:38.252Z,12.80
2018-10-19T23:58:06.832Z,12.86
